Ksl Sapporo — VRNH7 — position and weather

sailwx.info

Track history (hours):
 
Tides and Currents Weather Stations Pressure Air Temp Water Temp Dewpoint Dewpoint Depression Visibility Wind Speed Wind Dir Waves Ship Positions

Ksl Sapporo

Last reported at 2017-Sep-21 15:58 UTC. Time now 2017-Sep-21 16:18 UTC.
Position S 02°24' W 044°21'.

Length 292 m; draft 8.2 m.

Type: Cargo ship. MMSI: 477271100.

Date/timePositionNaut miles runAvg speedWind from/ knotsBaromVisibWave heightAir tempDewpointWater temp
2017-Sep-21 15:58S 02°24' W 044°21'0 0.0
2017-Sep-21 15:28S 02°24' W 044°21'0 0.0
2017-Sep-21 14:58S 02°24' W 044°21'0 0.0
2017-Sep-21 14:28S 02°24' W 044°21'0 0.0
2017-Sep-21 13:55S 02°24' W 044°21'0 0.1
2017-Sep-21 13:28S 02°24' W 044°21'0 0.1
2017-Sep-21 12:55S 02°24' W 044°21'0 0.3
2017-Sep-21 12:28S 02°24' W 044°22'0 0.2
2017-Sep-21 11:58S 02°24' W 044°22'0 0.1
2017-Sep-21 11:28S 02°24' W 044°22'0 0.1
2017-Sep-21 10:58S 02°25' W 044°22'0 0.0
2017-Sep-21 10:25S 02°25' W 044°22'0 0.0
2017-Sep-21 09:55S 02°25' W 044°22'0 0.0
2017-Sep-21 09:28S 02°25' W 044°22'0 0.0
2017-Sep-21 08:58S 02°25' W 044°22'0 0.0
2017-Sep-21 08:28S 02°25' W 044°22'0 0.0
2017-Sep-21 07:58S 02°25' W 044°22'0 0.0
2017-Sep-21 07:28S 02°25' W 044°22'0 0.0
2017-Sep-21 06:58S 02°25' W 044°22'0 0.0
2017-Sep-21 06:28S 02°25' W 044°22'0 0.0
2017-Sep-21 05:58S 02°25' W 044°22'0 0.1
2017-Sep-21 05:28S 02°24' W 044°22'0 0.4
2017-Sep-21 04:58S 02°24' W 044°22'0 0.3
2017-Sep-21 04:28S 02°24' W 044°21'0 0.1
2017-Sep-21 03:58S 02°24' W 044°21'0 0.0
2017-Sep-21 03:28S 02°24' W 044°21'0 0.0
2017-Sep-21 02:58S 02°24' W 044°21'0 0.0
2017-Sep-21 02:25S 02°24' W 044°21'0 0.0
2017-Sep-21 01:58S 02°24' W 044°21'0 0.0
2017-Sep-21 01:28S 02°24' W 044°21'0 0.0
2017-Sep-21 00:58S 02°24' W 044°21'0 0.1
2017-Sep-21 00:28S 02°24' W 044°21'0 0.4
2017-Sep-20 23:58S 02°24' W 044°22'0 0.2
2017-Sep-20 23:28S 02°24' W 044°22'0 0.1
2017-Sep-20 22:58S 02°25' W 044°22'0 0.0
2017-Sep-20 22:28S 02°25' W 044°22'0 0.0
2017-Sep-20 21:58S 02°25' W 044°22'0 0.0
2017-Sep-20 21:28S 02°25' W 044°22'0 0.0
2017-Sep-20 20:55S 02°25' W 044°22'0 0.0
2017-Sep-20 20:28S 02°25' W 044°22'0 0.0
2017-Sep-20 19:55S 02°25' W 044°22'0 0.0
2017-Sep-20 19:22S 02°25' W 044°22'0 0.0
2017-Sep-20 18:55S 02°25' W 044°22'0 0.0
2017-Sep-20 18:28S 02°25' W 044°22'0 0.0
2017-Sep-20 17:58S 02°25' W 044°22'0 0.0
2017-Sep-20 17:28S 02°25' W 044°22'0 0.3
2017-Sep-20 16:58S 02°24' W 044°22'0 0.4
2017-Sep-20 16:28S 02°24' W 044°21'0 0.1
2017-Sep-20 15:58S 02°24' W 044°21'0 0.0
2017-Sep-20 15:25S 02°24' W 044°21'0 0.0
2017-Sep-20 14:49S 02°24' W 044°21'0 0.0
2017-Sep-20 13:55S 02°24' W 044°21'0 0.0
2017-Sep-20 13:28S 02°24' W 044°21'0 0.0
2017-Sep-20 12:55S 02°24' W 044°21'0 0.0
2017-Sep-20 12:25S 02°24' W 044°21'0 0.2
2017-Sep-20 11:58S 02°24' W 044°21'0 0.3
2017-Sep-20 11:28S 02°24' W 044°22'0 0.2
2017-Sep-20 10:58S 02°24' W 044°22'0 0.1
2017-Sep-20 10:28S 02°24' W 044°22'0 0.0
2017-Sep-20 09:58S 02°25' W 044°22'0 0.0
2017-Sep-20 09:28S 02°25' W 044°22'0 0.0
2017-Sep-20 08:58S 02°25' W 044°22'0 0.0
2017-Sep-20 08:25S 02°25' W 044°22'0 0.4
2017-Sep-20 08:00S 02°24' W 044°21'1 2.0
2017-Sep-20 07:30S 02°25' W 044°21'3 6.2
2017-Sep-20 07:00S 02°23' W 044°19'5 9.2
2017-Sep-20 06:30S 02°19' W 044°17'5 9.4
2017-Sep-20 06:00S 02°15' W 044°15'511.0
2017-Sep-20 05:30S 02°10' W 044°12'511.0
2017-Sep-20 05:00S 02°05' W 044°09'510.9
2017-Sep-20 04:30S 02°00' W 044°07'611.0
2017-Sep-20 04:00S 01°57' W 044°02'  
Track history (hours):
 
Tides and Currents Weather Stations Pressure Air Temp Water Temp Dewpoint Dewpoint Depression Visibility Wind Speed Wind Dir Waves Ship Positions

Ksl Sapporo

Last reported at 2017-Sep-21 15:58 UTC. Time now 2017-Sep-21 16:18 UTC.
Position S 02°24' W 044°21'.

Length 292 m; draft 8.2 m.

Type: Cargo ship. MMSI: 477271100.

Date/timePositionNaut miles runAvg speedWind from/ knotsBaromVisibWave heightAir tempDewpointWater temp
2017-Sep-21 15:58S 02°24' W 044°21'0 0.0
2017-Sep-21 15:28S 02°24' W 044°21'0 0.0
2017-Sep-21 14:58S 02°24' W 044°21'0 0.0
2017-Sep-21 14:28S 02°24' W 044°21'0 0.0
2017-Sep-21 13:55S 02°24' W 044°21'0 0.1
2017-Sep-21 13:28S 02°24' W 044°21'0 0.1
2017-Sep-21 12:55S 02°24' W 044°21'0 0.3
2017-Sep-21 12:28S 02°24' W 044°22'0 0.2
2017-Sep-21 11:58S 02°24' W 044°22'0 0.1
2017-Sep-21 11:28S 02°24' W 044°22'0 0.1
2017-Sep-21 10:58S 02°25' W 044°22'0 0.0
2017-Sep-21 10:25S 02°25' W 044°22'0 0.0
2017-Sep-21 09:55S 02°25' W 044°22'0 0.0
2017-Sep-21 09:28S 02°25' W 044°22'0 0.0
2017-Sep-21 08:58S 02°25' W 044°22'0 0.0
2017-Sep-21 08:28S 02°25' W 044°22'0 0.0
2017-Sep-21 07:58S 02°25' W 044°22'0 0.0
2017-Sep-21 07:28S 02°25' W 044°22'0 0.0
2017-Sep-21 06:58S 02°25' W 044°22'0 0.0
2017-Sep-21 06:28S 02°25' W 044°22'0 0.0
2017-Sep-21 05:58S 02°25' W 044°22'0 0.1
2017-Sep-21 05:28S 02°24' W 044°22'0 0.4
2017-Sep-21 04:58S 02°24' W 044°22'0 0.3
2017-Sep-21 04:28S 02°24' W 044°21'0 0.1
2017-Sep-21 03:58S 02°24' W 044°21'0 0.0
2017-Sep-21 03:28S 02°24' W 044°21'0 0.0
2017-Sep-21 02:58S 02°24' W 044°21'0 0.0
2017-Sep-21 02:25S 02°24' W 044°21'0 0.0
2017-Sep-21 01:58S 02°24' W 044°21'0 0.0
2017-Sep-21 01:28S 02°24' W 044°21'0 0.0
2017-Sep-21 00:58S 02°24' W 044°21'0 0.1
2017-Sep-21 00:28S 02°24' W 044°21'0 0.4
2017-Sep-20 23:58S 02°24' W 044°22'0 0.2
2017-Sep-20 23:28S 02°24' W 044°22'0 0.1
2017-Sep-20 22:58S 02°25' W 044°22'0 0.0
2017-Sep-20 22:28S 02°25' W 044°22'0 0.0
2017-Sep-20 21:58S 02°25' W 044°22'0 0.0
2017-Sep-20 21:28S 02°25' W 044°22'0 0.0
2017-Sep-20 20:55S 02°25' W 044°22'0 0.0
2017-Sep-20 20:28S 02°25' W 044°22'0 0.0
2017-Sep-20 19:55S 02°25' W 044°22'0 0.0
2017-Sep-20 19:22S 02°25' W 044°22'0 0.0
2017-Sep-20 18:55S 02°25' W 044°22'0 0.0
2017-Sep-20 18:28S 02°25' W 044°22'0 0.0
2017-Sep-20 17:58S 02°25' W 044°22'0 0.0
2017-Sep-20 17:28S 02°25' W 044°22'0 0.3
2017-Sep-20 16:58S 02°24' W 044°22'0 0.4
2017-Sep-20 16:28S 02°24' W 044°21'0 0.1
2017-Sep-20 15:58S 02°24' W 044°21'0 0.0
2017-Sep-20 15:25S 02°24' W 044°21'0 0.0
2017-Sep-20 14:49S 02°24' W 044°21'0 0.0
2017-Sep-20 13:55S 02°24' W 044°21'0 0.0
2017-Sep-20 13:28S 02°24' W 044°21'0 0.0
2017-Sep-20 12:55S 02°24' W 044°21'0 0.0
2017-Sep-20 12:25S 02°24' W 044°21'0 0.2
2017-Sep-20 11:58S 02°24' W 044°21'0 0.3
2017-Sep-20 11:28S 02°24' W 044°22'0 0.2
2017-Sep-20 10:58S 02°24' W 044°22'0 0.1
2017-Sep-20 10:28S 02°24' W 044°22'0 0.0
2017-Sep-20 09:58S 02°25' W 044°22'0 0.0
2017-Sep-20 09:28S 02°25' W 044°22'0 0.0
2017-Sep-20 08:58S 02°25' W 044°22'0 0.0
2017-Sep-20 08:25S 02°25' W 044°22'0 0.4
2017-Sep-20 08:00S 02°24' W 044°21'1 2.0
2017-Sep-20 07:30S 02°25' W 044°21'3 6.2
2017-Sep-20 07:00S 02°23' W 044°19'5 9.2
2017-Sep-20 06:30S 02°19' W 044°17'5 9.4
2017-Sep-20 06:00S 02°15' W 044°15'511.0
2017-Sep-20 05:30S 02°10' W 044°12'511.0
2017-Sep-20 05:00S 02°05' W 044°09'510.9
2017-Sep-20 04:30S 02°00' W 044°07'611.0
2017-Sep-20 04:00S 01°57' W 044°02'  

Dump ship's entire track history